Time;durP1;ratioP1;P1;durP2;ratioP2;P2;SDS_P1;SDS_P2;PMS_P1;PMS_P2;Temp;Humidity;BMP_temperature;BMP_pressure;BME280_temperature;BME280_humidity;BME280_pressure;Samples;Min_cycle;Max_cycle;Signal;HPM_P1;HPM_P2
2023/02/19 00:01:45;;;;;;;10.33;5.10;;;4.80;99.90;;;;;;4994090;28;20460;-82
2023/02/19 00:04:21;;;;;;;9.47;5.20;;;4.70;99.90;;;;;;4993529;28;20456;-83
2023/02/19 00:06:47;;;;;;;6.83;4.93;;;4.70;99.90;;;;;;4992353;28;20443;-84
2023/02/19 00:09:15;;;;;;;10.47;5.20;;;4.90;99.90;;;;;;4992218;28;20429;-83
2023/02/19 00:11:41;;;;;;;8.50;3.90;;;4.80;99.90;;;;;;4993491;28;20435;-82
2023/02/19 00:14:07;;;;;;;5.50;3.53;;;4.70;99.90;;;;;;5008361;28;20412;-82
2023/02/19 00:16:36;;;;;;;11.40;4.90;;;4.80;99.90;;;;;;4993296;28;20562;-83
2023/02/19 00:19:04;;;;;;;6.70;5.20;;;4.70;99.90;;;;;;4993111;28;20603;-82
2023/02/19 00:21:30;;;;;;;8.00;5.43;;;4.70;99.90;;;;;;4993359;28;20419;-83
2023/02/19 00:23:58;;;;;;;10.37;5.40;;;4.70;99.90;;;;;;4993350;28;20447;-83
2023/02/19 00:26:24;;;;;;;9.93;5.20;;;4.70;99.90;;;;;;4993345;28;20178;-84
2023/02/19 00:28:51;;;;;;;8.57;4.03;;;4.70;99.90;;;;;;4993198;28;20448;-84
2023/02/19 00:31:24;;;;;;;8.37;5.07;;;4.70;99.90;;;;;;4993006;28;20432;-84
2023/02/19 00:33:58;;;;;;;9.17;3.80;;;4.80;99.90;;;;;;4992843;28;20408;-82
2023/02/19 00:36:25;;;;;;;9.83;4.70;;;4.70;99.90;;;;;;4994968;28;20521;-83
2023/02/19 00:38:51;;;;;;;12.50;6.40;;;4.70;99.90;;;;;;5002122;28;20454;-83
2023/02/19 00:41:18;;;;;;;4.87;3.80;;;4.80;99.90;;;;;;4992970;28;20502;-83
2023/02/19 00:44:04;;;;;;;6.50;5.20;;;4.80;99.90;;;;;;4993025;28;20183;-84
2023/02/19 00:46:38;;;;;;;11.63;3.83;;;4.80;99.90;;;;;;4992642;28;20472;-84
2023/02/19 00:49:06;;;;;;;7.57;5.50;;;4.70;99.90;;;;;;4991455;28;20431;-84
2023/02/19 00:51:35;;;;;;;7.60;5.37;;;4.70;99.90;;;;;;4998824;28;20444;-84
2023/02/19 00:54:04;;;;;;;7.70;3.60;;;4.70;99.90;;;;;;5011374;28;20505;-84
2023/02/19 00:56:29;;;;;;;7.93;5.47;;;4.70;99.90;;;;;;5012381;28;20472;-84
2023/02/19 00:58:55;;;;;;;12.30;5.73;;;4.70;99.90;;;;;;5010927;28;20432;-83
2023/02/19 01:01:21;;;;;;;11.03;5.70;;;4.70;99.90;;;;;;5012454;28;20179;-83
2023/02/19 01:03:47;;;;;;;9.43;5.70;;;4.70;99.90;;;;;;5012129;28;20416;-84
2023/02/19 01:06:15;;;;;;;11.40;6.60;;;4.70;99.90;;;;;;5010190;28;21151;-84
2023/02/19 01:08:40;;;;;;;13.57;6.53;;;4.70;99.90;;;;;;5011075;28;20473;-82
2023/02/19 01:11:07;;;;;;;12.97;6.20;;;4.60;99.90;;;;;;5012464;28;20448;-84
2023/02/19 01:13:33;;;;;;;14.83;7.10;;;4.60;99.90;;;;;;5012458;28;20179;-86
2023/02/19 01:16:06;;;;;;;8.70;4.30;;;4.60;99.90;;;;;;5012344;28;20447;-86
2023/02/19 01:18:33;;;;;;;12.00;5.60;;;4.60;99.90;;;;;;5012061;28;20414;-85
2023/02/19 01:20:58;;;;;;;11.27;5.53;;;4.60;99.90;;;;;;5012293;28;20494;-86
2023/02/19 01:23:24;;;;;;;11.60;7.30;;;4.60;99.90;;;;;;5012211;28;20906;-86
2023/02/19 01:25:50;;;;;;;10.00;5.93;;;4.60;99.90;;;;;;5011536;28;20637;-86
2023/02/19 01:28:18;;;;;;;13.23;5.50;;;4.70;99.90;;;;;;5014769;28;20424;-86
2023/02/19 01:30:44;;;;;;;12.00;6.37;;;4.70;99.90;;;;;;5015848;28;20199;-86
2023/02/19 01:33:09;;;;;;;12.50;5.37;;;4.60;99.90;;;;;;5014198;28;20422;-86
2023/02/19 01:35:38;;;;;;;10.53;5.60;;;4.60;99.90;;;;;;5015594;28;20172;-86
2023/02/19 01:38:03;;;;;;;12.53;6.30;;;4.60;99.90;;;;;;5015761;28;20183;-86
2023/02/19 01:40:32;;;;;;;11.33;6.33;;;4.60;99.90;;;;;;5015907;28;20932;-87
2023/02/19 01:42:57;;;;;;;9.40;5.23;;;4.60;99.90;;;;;;5014311;28;20174;-86
2023/02/19 01:45:31;;;;;;;17.80;6.40;;;4.60;99.90;;;;;;5014176;28;21047;-86
2023/02/19 01:48:03;;;;;;;11.60;5.17;;;4.50;99.90;;;;;;5015234;28;20191;-86
2023/02/19 01:50:36;;;;;;;14.20;4.70;;;4.50;99.90;;;;;;5014216;28;20768;-86
2023/02/19 01:53:05;;;;;;;10.00;4.67;;;4.60;99.90;;;;;;5015340;28;20533;-86
2023/02/19 01:55:32;;;;;;;20.30;6.50;;;4.60;99.90;;;;;;5014109;28;20527;-86
2023/02/19 01:58:02;;;;;;;9.50;4.93;;;4.50;99.90;;;;;;5014142;28;20489;-86
2023/02/19 02:00:27;;;;;;;12.70;5.77;;;4.40;99.90;;;;;;5014065;28;20482;-87
2023/02/19 02:02:56;;;;;;;11.00;5.27;;;4.10;99.90;;;;;;5013764;28;20429;-88
2023/02/19 02:05:45;;;;;;;9.53;5.03;;;4.40;99.90;;;;;;5014381;28;20182;-87
2023/02/19 02:10:57;;;;;;;11.13;6.53;;;4.70;99.90;;;;;;5015641;28;20407;-89
2023/02/19 02:13:23;;;;;;;8.93;4.37;;;4.50;99.90;;;;;;5011132;28;20586;-89
2023/02/19 02:16:12;;;;;;;11.23;4.63;;;4.30;99.90;;;;;;4995937;28;20211;-85
2023/02/19 02:19:04;;;;;;;7.30;2.93;;;4.40;99.90;;;;;;4995048;28;20181;-85
2023/02/19 02:21:57;;;;;;;4.13;1.03;;;4.30;99.90;;;;;;4995323;28;20424;-84
2023/02/19 02:25:15;;;;;;;4.37;1.37;;;4.10;99.90;;;;;;4995340;28;20802;-85
2023/02/19 02:28:13;;;;;;;4.73;1.13;;;3.90;99.90;;;;;;4954404;29;20430;-85
2023/02/19 02:30:43;;;;;;;3.13;0.70;;;;;;;;;;4954183;29;20517;-85
2023/02/19 02:33:46;;;;;;;3.83;0.60;;;4.50;99.90;;;;;;4986957;28;20518;-85
2023/02/19 02:36:18;;;;;;;1.60;0.50;;;4.90;99.90;;;;;;4994572;28;20481;-84
2023/02/19 02:38:45;;;;;;;1.37;0.90;;;5.20;99.90;;;;;;4994957;28;20422;-84
2023/02/19 02:41:12;;;;;;;2.10;0.60;;;4.10;99.90;;;;;;4993596;28;20941;-84
2023/02/19 02:43:38;;;;;;;2.60;1.03;;;4.00;99.90;;;;;;4994737;28;20423;-84
2023/02/19 02:46:04;;;;;;;5.57;1.20;;;4.10;99.90;;;;;;4993804;28;20578;-83
2023/02/19 02:48:29;;;;;;;4.40;0.70;;;4.00;99.90;;;;;;4994795;28;20190;-85
2023/02/19 02:51:05;;;;;;;2.83;0.57;;;3.90;99.90;;;;;;4995116;28;20264;-84
2023/02/19 02:56:33;;;;;;;3.20;0.77;;;4.00;99.90;;;;;;4995024;28;20490;-84
2023/02/19 02:59:02;;;;;;;3.03;1.00;;;4.00;99.90;;;;;;4993742;28;20796;-84
2023/02/19 03:04:34;;;;;;;2.33;0.53;;;4.00;99.90;;;;;;4995144;28;20428;-84
2023/02/19 03:07:04;;;;;;;4.47;0.53;;;3.90;99.90;;;;;;4994809;28;20416;-84
2023/02/19 03:09:40;;;;;;;3.33;0.67;;;3.90;99.90;;;;;;4994775;28;20499;-84
2023/02/19 03:20:39;;;;;;;2.53;0.70;;;3.70;99.90;;;;;;4994904;28;20427;-85
2023/02/19 03:23:08;;;;;;;2.10;0.80;;;3.70;99.90;;;;;;4994440;28;20454;-84
2023/02/19 03:29:21;;;;;;;1.63;0.90;;;3.80;99.90;;;;;;4994758;28;20848;-87
2023/02/19 03:31:17;;;;;;;4.17;0.80;;;3.80;99.90;;;;;;4994257;28;20440;-85
2023/02/19 03:33:46;;;;;;;4.13;0.73;;;3.90;99.90;;;;;;4994037;28;20416;-85
2023/02/19 03:36:14;;;;;;;5.77;1.30;;;3.80;99.90;;;;;;4992904;28;20456;-86
2023/02/19 03:38:51;;;;;;;1.03;0.40;;;3.90;99.90;;;;;;4994230;28;20429;-85
2023/02/19 03:41:25;;;;;;;1.33;0.33;;;3.90;99.90;;;;;;4994176;28;20553;-83
2023/02/19 03:44:19;;;;;;;5.00;0.87;;;3.90;99.90;;;;;;4994190;28;20419;-83
2023/02/19 03:46:54;;;;;;;3.73;0.40;;;3.90;99.90;;;;;;4992480;28;20510;-83
2023/02/19 03:49:36;;;;;;;1.67;0.40;;;3.90;99.90;;;;;;4993550;28;20454;-83
2023/02/19 03:52:07;;;;;;;5.30;0.93;;;3.90;99.90;;;;;;4994099;28;20466;-83
2023/02/19 03:54:52;;;;;;;2.77;1.27;;;3.90;99.90;;;;;;4994013;28;20423;-84
2023/02/19 03:57:35;;;;;;;1.90;0.40;;;3.80;99.90;;;;;;4993877;28;20468;-83
2023/02/19 04:00:17;;;;;;;1.00;0.50;;;3.80;99.90;;;;;;4993942;28;20438;-85
2023/02/19 04:02:55;;;;;;;5.50;0.93;;;3.80;99.90;;;;;;4993484;28;20773;-83
2023/02/19 04:05:25;;;;;;;2.80;1.67;;;3.80;99.90;;;;;;4992494;28;20423;-83
2023/02/19 04:07:54;;;;;;;1.77;0.53;;;3.80;99.90;;;;;;4993751;28;20764;-85
2023/02/19 04:10:21;;;;;;;2.83;0.30;;;3.80;99.90;;;;;;4993645;28;20505;-83
2023/02/19 04:12:59;;;;;;;1.40;0.50;;;3.80;99.90;;;;;;4992462;28;20441;-84
2023/02/19 04:15:29;;;;;;;3.80;0.60;;;3.80;99.90;;;;;;4993810;28;20799;-85
2023/02/19 04:18:10;;;;;;;5.03;0.50;;;3.80;99.90;;;;;;4993373;28;20441;-85
2023/02/19 04:20:41;;;;;;;2.27;0.83;;;3.80;99.90;;;;;;4993710;28;20499;-85
2023/02/19 04:23:07;;;;;;;1.47;0.60;;;3.80;99.90;;;;;;4993567;28;20437;-83
2023/02/19 04:25:36;;;;;;;2.70;1.00;;;3.80;99.90;;;;;;4992369;28;20432;-84
2023/02/19 04:28:07;;;;;;;1.87;0.70;;;3.70;99.90;;;;;;4992306;28;20483;-83
2023/02/19 04:30:32;;;;;;;1.53;0.33;;;3.80;99.90;;;;;;4993596;28;20450;-84
2023/02/19 04:32:58;;;;;;;2.60;0.90;;;3.80;99.90;;;;;;4993267;28;20454;-83
2023/02/19 04:35:23;;;;;;;2.53;0.47;;;3.70;99.90;;;;;;4992355;28;20172;-85
2023/02/19 04:37:51;;;;;;;1.27;0.43;;;3.60;99.90;;;;;;4992236;28;20225;-84
2023/02/19 04:40:17;;;;;;;4.00;0.60;;;3.60;99.90;;;;;;4992350;28;20176;-85
2023/02/19 04:42:42;;;;;;;1.70;0.60;;;3.70;99.90;;;;;;4993834;28;20431;-87
2023/02/19 04:45:08;;;;;;;3.93;0.77;;;3.60;99.90;;;;;;4992169;28;20228;-87
2023/02/19 04:47:33;;;;;;;1.83;0.77;;;3.60;99.90;;;;;;4993034;28;20219;-84
2023/02/19 04:49:59;;;;;;;3.13;0.80;;;3.60;99.90;;;;;;4993405;28;20196;-84
2023/02/19 04:52:24;;;;;;;5.07;1.40;;;3.60;99.90;;;;;;4993406;28;20172;-84
2023/02/19 04:54:50;;;;;;;5.43;0.90;;;3.60;99.90;;;;;;4993444;28;20592;-86
2023/02/19 04:57:15;;;;;;;1.40;0.63;;;3.70;99.90;;;;;;4992028;28;20221;-85
2023/02/19 04:59:42;;;;;;;2.57;0.43;;;3.70;99.90;;;;;;4992196;28;20212;-84
2023/02/19 05:02:07;;;;;;;3.13;0.50;;;3.70;99.90;;;;;;4994165;28;20181;-85
2023/02/19 05:04:35;;;;;;;5.03;1.40;;;3.50;99.90;;;;;;4997125;28;20415;-86
2023/02/19 05:07:01;;;;;;;6.23;1.43;;;3.70;99.90;;;;;;4995740;28;20658;-86
2023/02/19 05:09:26;;;;;;;2.50;0.47;;;3.60;99.90;;;;;;4995728;28;20515;-85
2023/02/19 05:11:52;;;;;;;5.90;1.73;;;3.60;99.90;;;;;;4997002;28;20550;-86
2023/02/19 05:14:17;;;;;;;9.97;0.90;;;3.50;99.90;;;;;;4996937;28;20204;-86
2023/02/19 05:16:43;;;;;;;2.83;0.80;;;3.50;99.90;;;;;;4995202;28;20701;-87
2023/02/19 05:19:12;;;;;;;1.87;0.60;;;3.50;99.90;;;;;;4996992;28;20240;-86
2023/02/19 05:21:40;;;;;;;3.90;1.33;;;3.60;99.90;;;;;;4996661;28;20211;-87
2023/02/19 05:24:06;;;;;;;8.57;3.03;;;3.60;99.90;;;;;;4996743;28;20870;-87
2023/02/19 05:26:31;;;;;;;2.97;1.20;;;3.50;99.90;;;;;;4996652;28;20521;-84
2023/02/19 05:28:58;;;;;;;1.90;1.00;;;3.40;99.90;;;;;;4996696;28;20498;-86
2023/02/19 05:31:26;;;;;;;5.90;1.50;;;3.40;99.90;;;;;;4996478;28;20533;-86
2023/02/19 05:33:54;;;;;;;6.83;1.60;;;3.40;99.90;;;;;;4995321;28;20419;-84
2023/02/19 05:36:20;;;;;;;2.83;1.77;;;3.30;99.90;;;;;;4996288;28;20479;-84
2023/02/19 05:38:46;;;;;;;2.60;1.00;;;3.30;99.90;;;;;;4995204;28;20437;-85
2023/02/19 05:41:32;;;;;;;4.30;1.60;;;3.20;99.90;;;;;;4996184;28;20419;-86
2023/02/19 05:43:57;;;;;;;3.93;1.17;;;3.10;99.90;;;;;;4995039;28;20774;-85
2023/02/19 05:46:24;;;;;;;2.13;1.13;;;;;;;;;;4995726;28;20593;-85
2023/02/19 05:48:51;;;;;;;3.60;1.07;;;2.90;99.90;;;;;;4994977;28;20238;-85
2023/02/19 05:51:21;;;;;;;4.03;1.83;;;;;;;;;;4996100;28;20457;-85
2023/02/19 05:53:47;;;;;;;2.57;0.83;;;;;;;;;;4994855;28;20905;-84
2023/02/19 05:56:25;;;;;;;4.10;1.40;;;2.70;99.90;;;;;;4996072;28;20472;-84
2023/02/19 05:58:51;;;;;;;6.30;1.53;;;;;;;;;;4994757;28;20450;-83
2023/02/19 06:01:18;;;;;;;9.77;2.10;;;2.70;99.90;;;;;;4996075;28;20450;-85
2023/02/19 06:03:44;;;;;;;3.90;1.13;;;2.60;99.90;;;;;;4994580;28;20430;-85
2023/02/19 06:06:14;;;;;;;6.13;1.53;;;2.70;99.90;;;;;;4994821;28;20431;-87
2023/02/19 06:08:40;;;;;;;3.40;1.03;;;2.70;99.90;;;;;;5001109;28;20294;-85
2023/02/19 06:11:06;;;;;;;3.03;1.37;;;2.60;99.90;;;;;;5016916;28;20498;-85
2023/02/19 06:13:31;;;;;;;3.10;1.30;;;2.50;99.90;;;;;;5013968;28;20491;-87
2023/02/19 06:15:57;;;;;;;2.50;0.90;;;2.60;99.90;;;;;;5014081;28;20264;-87
2023/02/19 06:18:22;;;;;;;5.37;1.47;;;2.60;99.90;;;;;;5015166;28;20701;-86
2023/02/19 06:20:48;;;;;;;5.30;1.70;;;2.60;99.90;;;;;;5015580;28;20178;-86
2023/02/19 06:23:14;;;;;;;10.07;1.57;;;2.50;99.90;;;;;;5015302;28;20199;-86
2023/02/19 06:25:40;;;;;;;6.33;1.23;;;2.50;99.90;;;;;;5014009;28;20191;-85
2023/02/19 06:28:08;;;;;;;6.30;2.13;;;;;;;;;;5015225;28;20910;-86
2023/02/19 06:30:34;;;;;;;3.07;0.87;;;;;;;;;;5015096;28;20412;-85
2023/02/19 06:32:59;;;;;;;3.70;1.43;;;2.60;99.90;;;;;;5014693;28;20422;-86
2023/02/19 06:35:25;;;;;;;9.50;2.07;;;2.30;99.90;;;;;;5015096;28;21052;-85
2023/02/19 06:37:53;;;;;;;4.53;2.33;;;2.40;99.90;;;;;;5014861;28;20217;-85
2023/02/19 06:40:18;;;;;;;4.57;2.00;;;2.40;99.90;;;;;;5015008;28;20168;-85
2023/02/19 06:42:44;;;;;;;9.30;2.83;;;2.40;99.90;;;;;;5014863;28;20501;-85
2023/02/19 06:45:09;;;;;;;9.20;3.30;;;2.50;99.90;;;;;;5014701;28;20281;-86
2023/02/19 06:47:38;;;;;;;6.10;3.10;;;2.50;99.90;;;;;;5014522;28;20164;-86
2023/02/19 06:50:03;;;;;;;5.60;2.63;;;2.70;99.90;;;;;;5014761;28;20171;-85
2023/02/19 06:52:32;;;;;;;4.57;2.17;;;2.60;99.90;;;;;;5014803;28;20476;-85
2023/02/19 06:54:57;;;;;;;4.23;2.27;;;2.80;99.90;;;;;;5013444;28;20171;-84
2023/02/19 06:57:26;;;;;;;4.00;2.30;;;2.60;99.90;;;;;;5013253;28;20472;-86
2023/02/19 06:59:52;;;;;;;6.37;2.20;;;;;;;;;;5013369;28;20167;-86
2023/02/19 07:02:17;;;;;;;6.30;2.33;;;2.70;99.90;;;;;;5012847;28;20422;-84
2023/02/19 07:04:42;;;;;;;6.97;2.20;;;2.80;99.90;;;;;;5014558;28;20410;-85
2023/02/19 07:07:10;;;;;;;3.27;1.57;;;2.80;99.90;;;;;;5014444;28;20698;-84
2023/02/19 07:09:36;;;;;;;4.20;2.03;;;2.90;99.90;;;;;;5014259;28;20218;-85
2023/02/19 07:12:01;;;;;;;2.67;1.57;;;3.10;99.90;;;;;;5014228;28;20884;-85
2023/02/19 07:14:30;;;;;;;8.47;1.80;;;3.10;99.90;;;;;;5014155;28;20569;-85
2023/02/19 07:16:58;;;;;;;7.00;1.60;;;3.30;99.90;;;;;;5013692;28;20214;-85
2023/02/19 07:19:23;;;;;;;7.53;0.70;;;3.70;99.90;;;;;;5014167;28;20942;-85
2023/02/19 07:21:49;;;;;;;2.70;0.90;;;4.00;99.90;;;;;;5012841;28;20426;-84
2023/02/19 07:24:14;;;;;;;3.87;0.47;;;4.00;99.90;;;;;;5013343;28;20632;-84
2023/02/19 07:26:40;;;;;;;3.17;1.17;;;3.80;99.90;;;;;;5013919;28;20176;-84
2023/02/19 07:29:06;;;;;;;4.37;1.63;;;3.80;99.90;;;;;;5014028;28;20174;-83
2023/02/19 07:31:31;;;;;;;5.47;1.57;;;4.20;99.90;;;;;;5013710;28;20164;-83
2023/02/19 07:33:57;;;;;;;5.60;0.73;;;4.60;99.90;;;;;;5013894;28;20416;-85
2023/02/19 07:36:23;;;;;;;4.37;1.10;;;4.60;99.90;;;;;;5013829;28;20221;-83
2023/02/19 07:38:56;;;;;;;6.83;1.33;;;5.10;99.90;;;;;;5013907;28;20591;-86
2023/02/19 07:41:23;;;;;;;5.30;1.47;;;5.60;99.90;;;;;;5012618;28;20467;-86
2023/02/19 07:43:48;;;;;;;1.83;0.67;;;5.80;99.90;;;;;;5012579;28;20428;-85
2023/02/19 07:46:14;;;;;;;4.83;1.53;;;5.20;99.90;;;;;;5011782;28;20464;-82
2023/02/19 07:48:41;;;;;;;4.63;1.60;;;4.90;99.90;;;;;;5013681;28;20564;-84
2023/02/19 07:51:10;;;;;;;8.53;1.13;;;5.00;99.90;;;;;;5013667;28;20526;-84
2023/02/19 07:53:35;;;;;;;5.57;1.30;;;5.50;99.90;;;;;;5013533;28;20411;-84
2023/02/19 07:56:06;;;;;;;4.77;1.43;;;6.00;99.90;;;;;;5012257;28;20988;-84
2023/02/19 07:58:33;;;;;;;5.90;0.97;;;6.40;99.90;;;;;;5015160;28;20284;-86
2023/02/19 08:02:58;;;;;;;3.90;1.00;;;6.90;99.90;;;;;;5013111;28;20420;-87
2023/02/19 08:04:06;;;;;;;5.73;0.80;;;7.60;99.90;;;;;;5013267;28;20477;-87
2023/02/19 08:06:32;;;;;;;5.13;1.13;;;8.40;1.00;;;;;;5012154;28;20420;-87
2023/02/19 08:08:57;;;;;;;5.53;0.53;;;7.60;7.10;;;;;;5012043;28;20766;-86
2023/02/19 08:14:07;;;;;;;2.63;0.90;;;6.20;99.90;;;;;;5013428;28;20178;-85
2023/02/19 08:16:32;;;;;;;6.43;1.00;;;5.90;99.90;;;;;;5012935;28;20478;-86
2023/02/19 08:18:57;;;;;;;5.70;0.80;;;5.60;99.90;;;;;;5012258;28;20624;-88
2023/02/19 08:21:23;;;;;;;4.00;1.30;;;5.70;99.90;;;;;;5012192;28;20202;-86
2023/02/19 08:23:49;;;;;;;4.63;0.77;;;7.00;99.90;;;;;;5013471;28;20171;-86
2023/02/19 08:26:14;;;;;;;3.23;1.00;;;10.00;99.90;;;;;;5013222;28;20175;-87
2023/02/19 08:28:40;;;;;;;2.10;0.77;;;10.30;1.00;;;;;;5012040;28;20176;-84
2023/02/19 08:31:08;;;;;;;2.63;0.60;;;11.00;1.00;;;;;;5013015;28;20175;-87
2023/02/19 08:33:34;;;;;;;8.53;1.60;;;11.50;99.90;;;;;;5013419;28;20184;-85
2023/02/19 08:36:05;;;;;;;3.20;0.60;;;12.10;1.00;;;;;;5015562;28;20464;-84
2023/02/19 08:38:35;;;;;;;3.97;1.50;;;12.40;1.00;;;;;;5016986;28;20425;-84
2023/02/19 08:41:05;;;;;;;4.43;1.30;;;12.70;1.00;;;;;;5016019;28;20418;-83
2023/02/19 08:43:31;;;;;;;3.70;0.90;;;12.90;1.00;;;;;;5017165;28;20484;-85
2023/02/19 08:45:56;;;;;;;3.47;0.63;;;12.80;1.00;;;;;;5016431;28;20468;-87
2023/02/19 08:48:21;;;;;;;3.67;1.10;;;13.40;1.00;;;;;;5016957;28;20266;-85
2023/02/19 08:51:05;;;;;;;4.27;1.13;;;13.60;1.00;;;;;;5016910;28;20164;-84
2023/02/19 08:53:31;;;;;;;3.33;0.50;;;13.50;99.90;;;;;;5016932;28;20182;-82
2023/02/19 08:55:57;;;;;;;1.87;0.50;;;13.50;99.90;;;;;;5016630;28;20468;-85
2023/02/19 08:58:25;;;;;;;3.20;0.50;;;13.30;99.90;;;;;;5016750;28;20424;-82
2023/02/19 09:00:51;;;;;;;3.67;1.00;;;13.40;99.90;;;;;;5015013;28;20261;-83
2023/02/19 09:03:16;;;;;;;2.60;0.37;;;13.60;99.90;;;;;;5015514;28;20429;-83
2023/02/19 09:05:45;;;;;;;3.83;0.83;;;13.90;99.90;;;;;;5016578;28;20467;-83
2023/02/19 09:08:11;;;;;;;2.37;0.20;;;13.70;99.90;;;;;;5016429;28;20173;-84
2023/02/19 09:10:37;;;;;;;1.70;0.30;;;13.70;99.90;;;;;;5015244;28;20474;-86
2023/02/19 09:13:05;;;;;;;2.37;0.63;;;14.10;99.90;;;;;;5016610;28;20181;-86
2023/02/19 09:15:34;;;;;;;1.73;0.40;;;14.10;99.90;;;;;;5015409;28;20229;-86
2023/02/19 09:17:59;;;;;;;4.33;0.60;;;13.60;99.90;;;;;;5015934;28;20503;-82
2023/02/19 09:20:25;;;;;;;2.40;0.23;;;13.50;99.90;;;;;;5016379;28;20896;-84
2023/02/19 09:22:56;;;;;;;2.50;0.30;;;13.70;99.90;;;;;;5014793;28;20667;-85
2023/02/19 09:25:21;;;;;;;3.27;0.50;;;14.10;99.90;;;;;;5016333;28;20173;-83
2023/02/19 09:27:47;;;;;;;4.07;0.60;;;14.00;99.90;;;;;;5014847;28;20439;-85
2023/02/19 09:30:12;;;;;;;2.07;0.87;;;14.50;99.90;;;;;;5016191;28;20301;-83
2023/02/19 09:32:38;;;;;;;1.93;0.83;;;14.30;99.90;;;;;;5015825;28;20192;-83
2023/02/19 09:35:09;;;;;;;3.73;0.40;;;14.80;99.90;;;;;;5016099;28;20181;-84
2023/02/19 09:37:35;;;;;;;2.60;0.20;;;14.10;99.90;;;;;;5014738;28;20213;-84
2023/02/19 09:40:00;;;;;;;1.47;0.30;;;14.50;99.90;;;;;;5016058;28;20480;-84
2023/02/19 09:42:32;;;;;;;3.23;0.70;;;14.50;99.90;;;;;;5014774;28;20185;-83
2023/02/19 09:45:00;;;;;;;2.87;0.60;;;15.30;99.90;;;;;;5014566;28;20222;-84
2023/02/19 09:47:28;;;;;;;2.13;0.60;;;13.20;99.90;;;;;;5014827;28;20505;-84
2023/02/19 09:49:59;;;;;;;5.50;0.80;;;12.80;99.90;;;;;;5014673;28;20453;-83
2023/02/19 09:52:44;;;;;;;2.87;0.57;;;12.90;99.90;;;;;;5015932;28;20425;-86
2023/02/19 09:55:29;;;;;;;2.57;0.30;;;14.30;99.90;;;;;;5015864;28;20417;-86
2023/02/19 09:57:57;;;;;;;1.77;0.50;;;14.40;99.90;;;;;;5014390;28;20567;-86
2023/02/19 10:00:31;;;;;;;2.30;0.40;;;14.30;99.90;;;;;;5015741;28;20414;-85
2023/02/19 10:03:04;;;;;;;1.43;0.30;;;14.50;99.90;;;;;;5015174;28;20902;-84
2023/02/19 10:05:31;;;;;;;4.23;0.40;;;14.10;99.90;;;;;;5015595;28;20431;-83
2023/02/19 10:07:57;;;;;;;2.87;0.50;;;13.10;99.90;;;;;;5015794;28;20417;-85
2023/02/19 10:10:33;;;;;;;3.23;0.30;;;13.60;99.90;;;;;;5014331;28;20429;-83
2023/02/19 10:13:21;;;;;;;1.90;0.57;;;14.80;1.00;;;;;;5015578;28;20601;-83
2023/02/19 10:15:51;;;;;;;4.27;0.30;;;15.10;99.90;;;;;;5013655;28;20943;-84
2023/02/19 10:18:19;;;;;;;1.00;0.30;;;15.40;99.90;;;;;;5015255;28;20428;-84
2023/02/19 10:20:46;;;;;;;3.47;0.27;;;15.90;99.90;;;;;;5014450;28;20441;-84
2023/02/19 10:23:16;;;;;;;4.70;0.33;;;15.30;99.90;;;;;;5017557;28;20918;-84
2023/02/19 10:25:48;;;;;;;4.20;0.30;;;16.60;99.90;;;;;;5013500;28;20428;-84
2023/02/19 10:28:18;;;;;;;1.87;0.30;;;16.30;99.90;;;;;;5014791;28;20776;-83
2023/02/19 10:30:44;;;;;;;5.40;0.63;;;;;;;;;;5013244;28;20501;-84
2023/02/19 10:33:13;;;;;;;1.60;0.60;;;16.10;99.90;;;;;;5013131;28;20509;-84
2023/02/19 10:36:14;;;;;;;2.00;0.43;;;16.60;99.90;;;;;;5014451;28;20406;-83
2023/02/19 10:38:45;;;;;;;1.83;0.20;;;17.00;99.90;;;;;;5014628;28;20425;-83
2023/02/19 10:41:19;;;;;;;1.53;0.40;;;17.10;99.90;;;;;;5014925;28;20461;-84
2023/02/19 10:43:53;;;;;;;2.40;0.37;;;17.20;99.90;;;;;;5014568;28;20808;-84
2023/02/19 10:46:24;;;;;;;1.23;0.37;;;16.70;99.90;;;;;;5013905;28;20466;-84
2023/02/19 10:48:55;;;;;;;1.13;0.70;;;16.80;99.90;;;;;;5014359;28;20414;-84
2023/02/19 10:51:31;;;;;;;0.70;0.20;;;17.50;99.90;;;;;;5013191;28;20457;-84
2023/02/19 10:54:30;;;;;;;2.20;0.20;;;15.90;99.90;;;;;;5014258;28;20402;-84
2023/02/19 10:57:17;;;;;;;0.83;0.20;;;14.60;99.90;;;;;;4994317;28;20484;-84
2023/02/19 10:59:56;;;;;;;1.83;0.20;;;16.20;99.90;;;;;;5013061;28;20402;-84
2023/02/19 11:02:22;;;;;;;1.27;0.30;;;16.00;99.90;;;;;;5013764;28;20504;-84
2023/02/19 11:05:08;;;;;;;1.90;0.30;;;13.60;99.90;;;;;;5003825;28;20446;-85
2023/02/19 11:07:36;;;;;;;1.13;0.20;;;15.20;99.90;;;;;;5001671;28;20433;-84
2023/02/19 11:10:02;;;;;;;1.43;0.37;;;14.80;99.90;;;;;;4994446;28;20419;-86
2023/02/19 11:12:32;;;;;;;1.07;0.30;;;15.40;99.90;;;;;;4994326;28;20541;-85
2023/02/19 11:15:19;;;;;;;2.53;0.20;;;15.70;99.90;;;;;;4994077;28;20415;-86
2023/02/19 11:18:11;;;;;;;1.20;0.23;;;15.70;99.90;;;;;;4994030;28;20480;-85
2023/02/19 11:20:55;;;;;;;1.70;0.37;;;16.30;99.90;;;;;;4994201;28;20407;-87
2023/02/19 11:23:28;;;;;;;1.00;0.27;;;15.80;99.90;;;;;;4994316;28;20931;-84
2023/02/19 11:25:57;;;;;;;0.50;0.20;;;15.60;99.90;;;;;;4994195;28;20411;-84
2023/02/19 11:28:33;;;;;;;0.97;0.27;;;16.50;99.90;;;;;;4993920;28;20419;-86
2023/02/19 11:31:31;;;;;;;1.00;0.37;;;15.50;99.90;;;;;;4993514;28;20779;-84
2023/02/19 11:34:01;;;;;;;2.57;0.30;;;15.40;99.90;;;;;;4999439;28;20425;-80
2023/02/19 11:36:26;;;;;;;2.87;0.77;;;15.50;99.90;;;;;;5010828;28;20468;-82
2023/02/19 11:38:53;;;;;;;0.83;0.20;;;15.50;99.90;;;;;;5010905;28;20434;-84
2023/02/19 11:42:07;;;;;;;1.90;0.30;;;16.40;99.90;;;;;;5012324;28;20167;-81
2023/02/19 11:44:45;;;;;;;2.40;0.27;;;17.20;99.90;;;;;;5010879;28;20552;-83
2023/02/19 11:47:28;;;;;;;1.73;0.30;;;17.00;99.90;;;;;;5011937;28;20437;-80
2023/02/19 11:50:20;;;;;;;1.00;0.27;;;16.50;99.90;;;;;;5012433;28;20402;-81
2023/02/19 11:53:28;;;;;;;1.03;0.30;;;16.70;99.90;;;;;;5012385;28;20941;-86
2023/02/19 11:56:05;;;;;;;2.50;0.30;;;16.40;99.90;;;;;;5012528;28;20840;-82
2023/02/19 11:58:47;;;;;;;1.63;0.20;;;15.60;99.90;;;;;;5012239;28;20421;-81
2023/02/19 12:01:34;;;;;;;0.57;0.20;;;15.90;99.90;;;;;;5011803;28;20490;-86
2023/02/19 12:04:24;;;;;;;3.73;0.43;;;16.50;99.90;;;;;;5008149;28;21020;-83
2023/02/19 12:06:59;;;;;;;1.30;0.30;;;16.20;99.90;;;;;;5008030;28;20414;-84
2023/02/19 12:09:53;;;;;;;2.20;0.53;;;16.50;99.90;;;;;;5013070;28;20422;-82
2023/02/19 12:12:33;;;;;;;1.80;0.50;;;16.70;99.90;;;;;;5010692;28;20433;-84
2023/02/19 12:15:36;;;;;;;0.60;0.20;;;16.80;99.90;;;;;;5011989;28;20522;-83
2023/02/19 12:18:16;;;;;;;0.87;0.30;;;16.00;99.90;;;;;;5011703;28;20476;-84
2023/02/19 12:21:17;;;;;;;1.40;0.23;;;15.20;99.90;;;;;;5011938;28;20413;-82
2023/02/19 12:24:10;;;;;;;1.40;0.27;;;14.70;99.90;;;;;;5011844;28;21040;-86
2023/02/19 12:26:58;;;;;;;2.10;0.20;;;15.40;99.90;;;;;;5011898;28;20422;-84
2023/02/19 12:29:28;;;;;;;2.23;0.40;;;15.40;99.90;;;;;;5011812;28;20405;-81
2023/02/19 12:32:18;;;;;;;1.07;0.20;;;15.40;99.90;;;;;;5009994;28;20428;-82
2023/02/19 12:35:12;;;;;;;3.97;0.40;;;16.10;99.90;;;;;;5011676;28;20912;-82
2023/02/19 12:37:50;;;;;;;1.37;0.20;;;16.20;99.90;;;;;;5011422;28;20474;-83
2023/02/19 12:40:40;;;;;;;2.00;0.20;;;14.80;99.90;;;;;;5011505;28;20424;-81
2023/02/19 12:43:24;;;;;;;1.87;0.20;;;15.10;99.90;;;;;;5011619;28;20425;-83
2023/02/19 12:46:12;;;;;;;0.60;0.30;;;15.40;99.90;;;;;;5011219;28;20530;-81
2023/02/19 12:48:38;;;;;;;2.37;0.33;;;15.40;99.90;;;;;;5011815;28;20409;-86
2023/02/19 12:51:35;;;;;;;2.80;0.60;;;16.00;99.90;;;;;;5011594;28;20398;-86
2023/02/19 12:54:06;;;;;;;2.00;0.30;;;16.00;99.90;;;;;;4997719;28;20190;-86
2023/02/19 12:57:07;;;;;;;3.53;0.70;;;15.10;99.90;;;;;;5011588;28;20500;-81
2023/02/19 12:59:58;;;;;;;2.43;0.70;;;15.70;99.90;;;;;;5011969;28;20416;-87
2023/02/19 13:02:39;;;;;;;1.67;0.30;;;15.60;99.90;;;;;;5008209;28;20433;-88
2023/02/19 13:05:19;;;;;;;2.83;0.60;;;15.00;99.90;;;;;;5011643;28;20982;-79
2023/02/19 13:08:03;;;;;;;1.40;0.20;;;15.80;99.90;;;;;;5011034;28;20427;-83
2023/02/19 13:10:40;;;;;;;3.00;0.37;;;14.90;99.90;;;;;;5005780;28;20929;-80
2023/02/19 13:13:16;;;;;;;2.77;0.50;;;13.00;99.90;;;;;;5006827;28;20774;-80
2023/02/19 13:15:47;;;;;;;1.10;0.40;;;12.50;99.90;;;;;;5010007;28;20435;-83
2023/02/19 13:18:18;;;;;;;2.67;0.57;;;12.50;99.90;;;;;;5008594;28;20462;-84
2023/02/19 13:20:50;;;;;;;1.80;0.43;;;12.80;99.90;;;;;;5011231;28;20464;-82
2023/02/19 13:26:40;;;;;;;0.90;0.20;;;12.60;99.90;;;;;;5014015;28;20398;-82
2023/02/19 13:29:40;;;;;;;1.27;0.20;;;12.70;99.90;;;;;;5014192;28;20848;-81
2023/02/19 13:32:34;;;;;;;0.87;0.27;;;12.70;99.90;;;;;;5013730;28;20404;-83
2023/02/19 13:35:20;;;;;;;2.93;0.40;;;12.30;99.90;;;;;;5013101;28;20430;-83
2023/02/19 13:37:47;;;;;;;1.53;0.20;;;12.00;99.90;;;;;;5010418;28;20830;-82
2023/02/19 13:40:21;;;;;;;3.47;0.27;;;12.20;99.90;;;;;;5015368;28;20869;-82
2023/02/19 13:42:55;;;;;;;0.73;0.30;;;12.00;99.90;;;;;;5012453;28;20436;-82
2023/02/19 13:45:40;;;;;;;2.00;0.33;;;11.60;99.90;;;;;;4999169;28;20470;-82
2023/02/19 13:48:22;;;;;;;1.50;0.33;;;11.80;99.90;;;;;;5007358;28;20980;-84